sensor_id;sensor_type;location;lat;lon;timestamp;temperature;humidity
26103;DHT22;32703;49.182;9.042;2022-08-01T00:02:04;21.50;68.80
26103;DHT22;32703;49.182;9.042;2022-08-01T00:04:30;21.50;69.60
26103;DHT22;32703;49.182;9.042;2022-08-01T00:06:55;21.50;69.00
26103;DHT22;32703;49.182;9.042;2022-08-01T00:09:21;21.40;69.10
26103;DHT22;32703;49.182;9.042;2022-08-01T00:11:46;21.50;69.20
26103;DHT22;32703;49.182;9.042;2022-08-01T00:14:12;21.50;69.30
26103;DHT22;32703;49.182;9.042;2022-08-01T00:16:38;21.40;69.40
26103;DHT22;32703;49.182;9.042;2022-08-01T00:19:03;21.40;69.70
26103;DHT22;32703;49.182;9.042;2022-08-01T00:21:29;21.40;70.00
26103;DHT22;32703;49.182;9.042;2022-08-01T00:23:55;21.30;70.30
26103;DHT22;32703;49.182;9.042;2022-08-01T00:26:20;21.30;70.50
26103;DHT22;32703;49.182;9.042;2022-08-01T00:28:46;21.20;70.80
26103;DHT22;32703;49.182;9.042;2022-08-01T00:31:11;21.20;71.20
26103;DHT22;32703;49.182;9.042;2022-08-01T00:33:37;21.00;71.10
26103;DHT22;32703;49.182;9.042;2022-08-01T00:36:02;21.10;71.40
26103;DHT22;32703;49.182;9.042;2022-08-01T00:38:28;21.00;71.60
26103;DHT22;32703;49.182;9.042;2022-08-01T00:40:54;20.90;71.90
26103;DHT22;32703;49.182;9.042;2022-08-01T00:43:19;20.90;72.10
26103;DHT22;32703;49.182;9.042;2022-08-01T00:45:45;20.90;73.10
26103;DHT22;32703;49.182;9.042;2022-08-01T00:48:11;20.90;72.40
26103;DHT22;32703;49.182;9.042;2022-08-01T00:50:36;20.80;72.60
26103;DHT22;32703;49.182;9.042;2022-08-01T00:53:02;20.80;72.70
26103;DHT22;32703;49.182;9.042;2022-08-01T00:55:28;20.80;73.00
26103;DHT22;32703;49.182;9.042;2022-08-01T00:57:54;20.80;73.30
26103;DHT22;32703;49.182;9.042;2022-08-01T01:00:23;20.80;73.50
26103;DHT22;32703;49.182;9.042;2022-08-01T01:02:49;20.70;74.60
26103;DHT22;32703;49.182;9.042;2022-08-01T01:05:14;20.70;74.00
26103;DHT22;32703;49.182;9.042;2022-08-01T01:07:42;20.70;74.30
26103;DHT22;32703;49.182;9.042;2022-08-01T01:10:17;20.60;74.40
26103;DHT22;32703;49.182;9.042;2022-08-01T01:12:51;20.60;74.70
26103;DHT22;32703;49.182;9.042;2022-08-01T01:15:29;20.60;74.90
26103;DHT22;32703;49.182;9.042;2022-08-01T01:18:13;20.60;75.10
26103;DHT22;32703;49.182;9.042;2022-08-01T01:20:42;20.50;75.20
26103;DHT22;32703;49.182;9.042;2022-08-01T01:23:40;20.50;75.50
26103;DHT22;32703;49.182;9.042;2022-08-01T01:29:00;20.40;75.90
26103;DHT22;32703;49.182;9.042;2022-08-01T01:31:28;20.40;76.10
26103;DHT22;32703;49.182;9.042;2022-08-01T01:33:57;20.50;76.10
26103;DHT22;32703;49.182;9.042;2022-08-01T01:36:26;20.40;76.10
26103;DHT22;32703;49.182;9.042;2022-08-01T01:38:53;20.40;76.10
26103;DHT22;32703;49.182;9.042;2022-08-01T01:41:20;20.40;76.10
26103;DHT22;32703;49.182;9.042;2022-08-01T01:43:46;20.40;76.30
26103;DHT22;32703;49.182;9.042;2022-08-01T01:46:16;20.50;76.50
26103;DHT22;32703;49.182;9.042;2022-08-01T01:48:44;20.40;76.60
26103;DHT22;32703;49.182;9.042;2022-08-01T01:51:11;20.40;77.10
26103;DHT22;32703;49.182;9.042;2022-08-01T01:53:38;20.40;77.20
26103;DHT22;32703;49.182;9.042;2022-08-01T01:56:04;20.40;77.60
26103;DHT22;32703;49.182;9.042;2022-08-01T01:58:33;20.30;78.00
26103;DHT22;32703;49.182;9.042;2022-08-01T02:01:00;20.30;78.10
26103;DHT22;32703;49.182;9.042;2022-08-01T02:03:28;20.20;78.40
26103;DHT22;32703;49.182;9.042;2022-08-01T02:05:54;20.20;78.90
26103;DHT22;32703;49.182;9.042;2022-08-01T02:08:21;20.10;79.00
26103;DHT22;32703;49.182;9.042;2022-08-01T02:10:50;20.10;79.20
26103;DHT22;32703;49.182;9.042;2022-08-01T02:13:37;20.10;79.40
26103;DHT22;32703;49.182;9.042;2022-08-01T02:16:04;20.10;79.60
26103;DHT22;32703;49.182;9.042;2022-08-01T02:18:31;20.10;79.80
26103;DHT22;32703;49.182;9.042;2022-08-01T02:20:58;20.10;79.90
26103;DHT22;32703;49.182;9.042;2022-08-01T02:23:31;20.10;80.10
26103;DHT22;32703;49.182;9.042;2022-08-01T02:25:58;20.10;80.40
26103;DHT22;32703;49.182;9.042;2022-08-01T02:28:30;19.90;80.40
26103;DHT22;32703;49.182;9.042;2022-08-01T02:31:02;20.00;80.70
26103;DHT22;32703;49.182;9.042;2022-08-01T02:33:37;20.00;80.90
26103;DHT22;32703;49.182;9.042;2022-08-01T02:36:03;20.00;81.30
26103;DHT22;32703;49.182;9.042;2022-08-01T02:38:32;19.90;81.60
26103;DHT22;32703;49.182;9.042;2022-08-01T02:41:04;19.90;81.90
26103;DHT22;32703;49.182;9.042;2022-08-01T02:43:31;19.90;82.10
26103;DHT22;32703;49.182;9.042;2022-08-01T02:46:01;20.00;82.40
26103;DHT22;32703;49.182;9.042;2022-08-01T02:48:28;19.90;82.80
26103;DHT22;32703;49.182;9.042;2022-08-01T02:50:58;19.90;83.00
26103;DHT22;32703;49.182;9.042;2022-08-01T02:53:26;19.90;83.30
26103;DHT22;32703;49.182;9.042;2022-08-01T02:55:53;19.90;83.70
26103;DHT22;32703;49.182;9.042;2022-08-01T02:58:20;19.90;83.70
26103;DHT22;32703;49.182;9.042;2022-08-01T03:00:49;19.90;84.00
26103;DHT22;32703;49.182;9.042;2022-08-01T03:03:15;19.90;84.10
26103;DHT22;32703;49.182;9.042;2022-08-01T03:05:43;19.90;84.50
26103;DHT22;32703;49.182;9.042;2022-08-01T03:08:10;19.80;84.60
26103;DHT22;32703;49.182;9.042;2022-08-01T03:10:38;19.90;84.90
26103;DHT22;32703;49.182;9.042;2022-08-01T03:13:06;19.80;85.00
26103;DHT22;32703;49.182;9.042;2022-08-01T03:15:35;19.80;85.40
26103;DHT22;32703;49.182;9.042;2022-08-01T03:18:03;19.80;85.80
26103;DHT22;32703;49.182;9.042;2022-08-01T03:20:31;19.70;85.90
26103;DHT22;32703;49.182;9.042;2022-08-01T03:23:01;19.70;86.10
26103;DHT22;32703;49.182;9.042;2022-08-01T03:25:27;19.70;86.40
26103;DHT22;32703;49.182;9.042;2022-08-01T03:27:56;19.70;86.60
26103;DHT22;32703;49.182;9.042;2022-08-01T03:30:25;19.60;86.90
26103;DHT22;32703;49.182;9.042;2022-08-01T03:32:51;19.60;87.20
26103;DHT22;32703;49.182;9.042;2022-08-01T03:35:17;19.50;87.50
26103;DHT22;32703;49.182;9.042;2022-08-01T03:37:48;19.50;87.60
26103;DHT22;32703;49.182;9.042;2022-08-01T03:40:25;19.60;87.80
26103;DHT22;32703;49.182;9.042;2022-08-01T03:42:58;19.50;87.90
26103;DHT22;32703;49.182;9.042;2022-08-01T03:45:41;19.50;88.00
26103;DHT22;32703;49.182;9.042;2022-08-01T03:48:13;19.50;88.30
26103;DHT22;32703;49.182;9.042;2022-08-01T03:50:46;19.50;88.60
26103;DHT22;32703;49.182;9.042;2022-08-01T03:53:13;19.50;89.00
26103;DHT22;32703;49.182;9.042;2022-08-01T03:55:41;19.50;89.60
26103;DHT22;32703;49.182;9.042;2022-08-01T03:58:08;19.50;90.00
26103;DHT22;32703;49.182;9.042;2022-08-01T04:00:38;19.50;90.10
26103;DHT22;32703;49.182;9.042;2022-08-01T04:03:08;19.50;90.10
26103;DHT22;32703;49.182;9.042;2022-08-01T04:05:35;19.50;90.10
26103;DHT22;32703;49.182;9.042;2022-08-01T04:08:01;19.50;90.10
26103;DHT22;32703;49.182;9.042;2022-08-01T04:10:28;19.60;90.40
26103;DHT22;32703;49.182;9.042;2022-08-01T04:12:54;19.60;90.40
26103;DHT22;32703;49.182;9.042;2022-08-01T04:15:19;19.60;90.50
26103;DHT22;32703;49.182;9.042;2022-08-01T04:17:46;19.60;90.40
26103;DHT22;32703;49.182;9.042;2022-08-01T04:20:12;19.60;90.40
26103;DHT22;32703;49.182;9.042;2022-08-01T04:22:38;19.70;90.40
26103;DHT22;32703;49.182;9.042;2022-08-01T04:25:08;19.70;90.50
26103;DHT22;32703;49.182;9.042;2022-08-01T04:27:37;19.70;90.40
26103;DHT22;32703;49.182;9.042;2022-08-01T04:30:05;19.80;90.40
26103;DHT22;32703;49.182;9.042;2022-08-01T04:32:34;19.80;90.40
26103;DHT22;32703;49.182;9.042;2022-08-01T04:35:04;19.90;90.40
26103;DHT22;32703;49.182;9.042;2022-08-01T04:37:30;19.90;90.40
26103;DHT22;32703;49.182;9.042;2022-08-01T04:39:57;19.90;90.40
26103;DHT22;32703;49.182;9.042;2022-08-01T04:42:24;20.00;90.40
26103;DHT22;32703;49.182;9.042;2022-08-01T04:44:50;20.10;90.30
26103;DHT22;32703;49.182;9.042;2022-08-01T04:47:16;20.20;90.30
26103;DHT22;32703;49.182;9.042;2022-08-01T04:49:43;20.20;90.20
26103;DHT22;32703;49.182;9.042;2022-08-01T04:52:11;20.30;90.20
26103;DHT22;32703;49.182;9.042;2022-08-01T04:54:37;20.30;90.20
26103;DHT22;32703;49.182;9.042;2022-08-01T04:57:03;20.30;90.10
26103;DHT22;32703;49.182;9.042;2022-08-01T04:59:30;20.40;90.20
26103;DHT22;32703;49.182;9.042;2022-08-01T05:02:10;20.30;90.20
26103;DHT22;32703;49.182;9.042;2022-08-01T05:04:37;20.50;90.30
26103;DHT22;32703;49.182;9.042;2022-08-01T05:07:03;20.50;90.30
26103;DHT22;32703;49.182;9.042;2022-08-01T05:09:29;20.50;90.50
26103;DHT22;32703;49.182;9.042;2022-08-01T05:11:56;20.60;90.50
26103;DHT22;32703;49.182;9.042;2022-08-01T05:14:26;20.60;90.60
26103;DHT22;32703;49.182;9.042;2022-08-01T05:16:52;20.60;90.70
26103;DHT22;32703;49.182;9.042;2022-08-01T05:19:18;20.60;90.80
26103;DHT22;32703;49.182;9.042;2022-08-01T05:21:44;20.70;90.80
26103;DHT22;32703;49.182;9.042;2022-08-01T05:24:10;20.80;90.80
26103;DHT22;32703;49.182;9.042;2022-08-01T05:26:36;20.80;90.90
26103;DHT22;32703;49.182;9.042;2022-08-01T05:29:02;20.80;90.80
26103;DHT22;32703;49.182;9.042;2022-08-01T05:31:28;20.90;90.90
26103;DHT22;32703;49.182;9.042;2022-08-01T05:33:53;20.90;90.70
26103;DHT22;32703;49.182;9.042;2022-08-01T05:36:19;21.00;90.60
26103;DHT22;32703;49.182;9.042;2022-08-01T05:38:45;21.10;90.50
26103;DHT22;32703;49.182;9.042;2022-08-01T05:41:10;21.10;90.30
26103;DHT22;32703;49.182;9.042;2022-08-01T05:43:36;21.20;90.40
26103;DHT22;32703;49.182;9.042;2022-08-01T05:46:02;21.30;90.20
26103;DHT22;32703;49.182;9.042;2022-08-01T05:48:27;21.40;90.00
26103;DHT22;32703;49.182;9.042;2022-08-01T05:50:54;21.40;90.00
26103;DHT22;32703;49.182;9.042;2022-08-01T05:53:19;21.50;89.60
26103;DHT22;32703;49.182;9.042;2022-08-01T05:55:45;21.50;89.60
26103;DHT22;32703;49.182;9.042;2022-08-01T05:58:11;21.60;89.50
26103;DHT22;32703;49.182;9.042;2022-08-01T06:00:36;21.70;89.20
26103;DHT22;32703;49.182;9.042;2022-08-01T06:03:02;21.80;89.10
26103;DHT22;32703;49.182;9.042;2022-08-01T06:05:27;21.80;88.90
26103;DHT22;32703;49.182;9.042;2022-08-01T06:07:53;22.00;88.60
26103;DHT22;32703;49.182;9.042;2022-08-01T06:10:19;22.00;88.60
26103;DHT22;32703;49.182;9.042;2022-08-01T06:12:44;22.10;88.20
26103;DHT22;32703;49.182;9.042;2022-08-01T06:15:10;22.10;88.40
26103;DHT22;32703;49.182;9.042;2022-08-01T06:17:36;22.20;87.80
26103;DHT22;32703;49.182;9.042;2022-08-01T06:20:02;22.30;87.80
26103;DHT22;32703;49.182;9.042;2022-08-01T06:22:28;22.40;88.20
26103;DHT22;32703;49.182;9.042;2022-08-01T06:24:53;22.40;87.50
26103;DHT22;32703;49.182;9.042;2022-08-01T06:27:19;22.50;87.20
26103;DHT22;32703;49.182;9.042;2022-08-01T06:29:45;22.60;86.90
26103;DHT22;32703;49.182;9.042;2022-08-01T06:32:10;22.70;86.90
26103;DHT22;32703;49.182;9.042;2022-08-01T06:34:36;22.80;87.00
26103;DHT22;32703;49.182;9.042;2022-08-01T06:37:01;22.80;86.90
26103;DHT22;32703;49.182;9.042;2022-08-01T06:39:27;22.90;86.70
26103;DHT22;32703;49.182;9.042;2022-08-01T06:41:53;23.00;86.40
26103;DHT22;32703;49.182;9.042;2022-08-01T06:44:18;23.10;86.10
26103;DHT22;32703;49.182;9.042;2022-08-01T06:46:44;23.20;85.60
26103;DHT22;32703;49.182;9.042;2022-08-01T06:49:09;23.30;85.00
26103;DHT22;32703;49.182;9.042;2022-08-01T06:51:35;23.50;84.60
26103;DHT22;32703;49.182;9.042;2022-08-01T06:54:00;23.60;84.00
26103;DHT22;32703;49.182;9.042;2022-08-01T06:56:26;23.70;83.60
26103;DHT22;32703;49.182;9.042;2022-08-01T06:58:51;23.90;83.20
26103;DHT22;32703;49.182;9.042;2022-08-01T07:01:17;24.00;82.80
26103;DHT22;32703;49.182;9.042;2022-08-01T07:03:43;24.10;82.40
26103;DHT22;32703;49.182;9.042;2022-08-01T07:06:08;24.30;82.10
26103;DHT22;32703;49.182;9.042;2022-08-01T07:08:35;24.40;80.90
26103;DHT22;32703;49.182;9.042;2022-08-01T07:11:00;24.60;80.00
26103;DHT22;32703;49.182;9.042;2022-08-01T07:13:27;24.80;79.60
26103;DHT22;32703;49.182;9.042;2022-08-01T07:15:52;25.00;78.80
26103;DHT22;32703;49.182;9.042;2022-08-01T07:18:18;25.20;78.00
26103;DHT22;32703;49.182;9.042;2022-08-01T07:20:44;25.20;77.40
26103;DHT22;32703;49.182;9.042;2022-08-01T07:23:11;25.30;76.90
26103;DHT22;32703;49.182;9.042;2022-08-01T07:25:37;25.30;76.90
26103;DHT22;32703;49.182;9.042;2022-08-01T07:28:03;25.30;76.90
26103;DHT22;32703;49.182;9.042;2022-08-01T07:30:29;25.40;76.20
26103;DHT22;32703;49.182;9.042;2022-08-01T07:32:54;25.60;75.70
26103;DHT22;32703;49.182;9.042;2022-08-01T07:35:20;25.70;74.00
26103;DHT22;32703;49.182;9.042;2022-08-01T07:37:45;25.70;73.70
26103;DHT22;32703;49.182;9.042;2022-08-01T07:40:12;25.70;73.80
26103;DHT22;32703;49.182;9.042;2022-08-01T07:42:37;25.70;74.00
26103;DHT22;32703;49.182;9.042;2022-08-01T07:45:03;25.90;73.80
26103;DHT22;32703;49.182;9.042;2022-08-01T07:47:29;26.20;71.80
26103;DHT22;32703;49.182;9.042;2022-08-01T07:50:02;26.40;71.10
26103;DHT22;32703;49.182;9.042;2022-08-01T07:52:28;26.30;69.90
26103;DHT22;32703;49.182;9.042;2022-08-01T07:54:55;26.20;70.50
26103;DHT22;32703;49.182;9.042;2022-08-01T07:57:22;26.10;71.30
26103;DHT22;32703;49.182;9.042;2022-08-01T07:59:47;26.30;71.50
26103;DHT22;32703;49.182;9.042;2022-08-01T08:02:13;26.50;70.20
26103;DHT22;32703;49.182;9.042;2022-08-01T08:04:38;26.70;69.60
26103;DHT22;32703;49.182;9.042;2022-08-01T08:07:04;27.00;68.50
26103;DHT22;32703;49.182;9.042;2022-08-01T08:09:29;27.20;67.80
26103;DHT22;32703;49.182;9.042;2022-08-01T08:11:55;27.30;67.10
26103;DHT22;32703;49.182;9.042;2022-08-01T08:14:20;27.20;67.10
26103;DHT22;32703;49.182;9.042;2022-08-01T08:16:48;27.10;67.00
26103;DHT22;32703;49.182;9.042;2022-08-01T08:19:14;26.90;67.60
26103;DHT22;32703;49.182;9.042;2022-08-01T08:21:39;26.90;67.30
26103;DHT22;32703;49.182;9.042;2022-08-01T08:24:06;27.00;67.30
26103;DHT22;32703;49.182;9.042;2022-08-01T08:26:53;27.00;67.20
26103;DHT22;32703;49.182;9.042;2022-08-01T08:29:20;27.20;66.60
26103;DHT22;32703;49.182;9.042;2022-08-01T08:31:47;27.30;66.20
26103;DHT22;32703;49.182;9.042;2022-08-01T08:34:16;27.60;66.20
26103;DHT22;32703;49.182;9.042;2022-08-01T08:36:41;28.00;65.10
26103;DHT22;32703;49.182;9.042;2022-08-01T08:39:07;28.30;63.70
26103;DHT22;32703;49.182;9.042;2022-08-01T08:41:34;28.60;62.80
26103;DHT22;32703;49.182;9.042;2022-08-01T08:44:01;28.70;62.20
26103;DHT22;32703;49.182;9.042;2022-08-01T08:46:27;28.70;62.20
26103;DHT22;32703;49.182;9.042;2022-08-01T08:48:58;28.70;62.40
26103;DHT22;32703;49.182;9.042;2022-08-01T08:51:30;28.60;61.70
26103;DHT22;32703;49.182;9.042;2022-08-01T08:53:56;28.50;62.40
26103;DHT22;32703;49.182;9.042;2022-08-01T08:56:23;28.20;62.40
26103;DHT22;32703;49.182;9.042;2022-08-01T08:58:53;28.10;63.20
26103;DHT22;32703;49.182;9.042;2022-08-01T09:01:19;28.10;62.60
26103;DHT22;32703;49.182;9.042;2022-08-01T09:03:44;28.20;62.80
26103;DHT22;32703;49.182;9.042;2022-08-01T09:06:11;28.20;62.80
26103;DHT22;32703;49.182;9.042;2022-08-01T09:08:36;28.40;62.60
26103;DHT22;32703;49.182;9.042;2022-08-01T09:11:03;28.70;62.00
26103;DHT22;32703;49.182;9.042;2022-08-01T09:13:28;28.80;61.30
26103;DHT22;32703;49.182;9.042;2022-08-01T09:15:55;29.00;61.00
26103;DHT22;32703;49.182;9.042;2022-08-01T09:18:32;29.50;60.50
26103;DHT22;32703;49.182;9.042;2022-08-01T09:21:14;29.90;58.80
26103;DHT22;32703;49.182;9.042;2022-08-01T09:23:43;30.00;58.30
26103;DHT22;32703;49.182;9.042;2022-08-01T09:26:14;29.90;58.70
26103;DHT22;32703;49.182;9.042;2022-08-01T09:28:44;30.00;57.90
26103;DHT22;32703;49.182;9.042;2022-08-01T09:31:18;30.10;57.50
26103;DHT22;32703;49.182;9.042;2022-08-01T09:36:17;30.70;56.50
26103;DHT22;32703;49.182;9.042;2022-08-01T09:38:54;31.10;56.30
26103;DHT22;32703;49.182;9.042;2022-08-01T09:41:37;31.40;55.10
26103;DHT22;32703;49.182;9.042;2022-08-01T09:44:03;31.50;54.20
26103;DHT22;32703;49.182;9.042;2022-08-01T09:46:29;31.30;53.20
26103;DHT22;32703;49.182;9.042;2022-08-01T09:48:59;31.20;54.20
26103;DHT22;32703;49.182;9.042;2022-08-01T09:51:30;31.10;54.40
26103;DHT22;32703;49.182;9.042;2022-08-01T09:53:56;31.10;54.10
26103;DHT22;32703;49.182;9.042;2022-08-01T09:56:22;31.00;54.50
26103;DHT22;32703;49.182;9.042;2022-08-01T09:58:50;30.70;54.80
26103;DHT22;32703;49.182;9.042;2022-08-01T10:01:16;30.50;55.30
26103;DHT22;32703;49.182;9.042;2022-08-01T10:03:41;30.20;55.80
26103;DHT22;32703;49.182;9.042;2022-08-01T10:06:20;29.80;55.50
26103;DHT22;32703;49.182;9.042;2022-08-01T10:08:54;29.30;57.10
26103;DHT22;32703;49.182;9.042;2022-08-01T10:11:23;29.00;57.70
26103;DHT22;32703;49.182;9.042;2022-08-01T10:13:49;29.00;58.50
26103;DHT22;32703;49.182;9.042;2022-08-01T10:16:15;29.00;58.40
26103;DHT22;32703;49.182;9.042;2022-08-01T10:18:42;29.00;58.30
26103;DHT22;32703;49.182;9.042;2022-08-01T10:21:10;29.10;58.20
26103;DHT22;32703;49.182;9.042;2022-08-01T10:23:37;29.20;58.00
26103;DHT22;32703;49.182;9.042;2022-08-01T10:26:04;29.50;57.30
26103;DHT22;32703;49.182;9.042;2022-08-01T10:28:35;29.80;56.60
26103;DHT22;32703;49.182;9.042;2022-08-01T10:31:02;30.20;56.50
26103;DHT22;32703;49.182;9.042;2022-08-01T10:33:29;30.70;54.90
26103;DHT22;32703;49.182;9.042;2022-08-01T10:35:55;31.10;53.60
26103;DHT22;32703;49.182;9.042;2022-08-01T10:38:21;31.40;52.70
26103;DHT22;32703;49.182;9.042;2022-08-01T10:40:48;31.80;51.20
26103;DHT22;32703;49.182;9.042;2022-08-01T10:43:16;31.70;51.20
26103;DHT22;32703;49.182;9.042;2022-08-01T10:45:42;31.40;52.10
26103;DHT22;32703;49.182;9.042;2022-08-01T10:48:15;31.30;52.30
26103;DHT22;32703;49.182;9.042;2022-08-01T10:50:48;31.40;52.70
26103;DHT22;32703;49.182;9.042;2022-08-01T10:53:18;31.60;52.00
26103;DHT22;32703;49.182;9.042;2022-08-01T10:55:51;31.60;52.20
26103;DHT22;32703;49.182;9.042;2022-08-01T10:58:26;31.70;52.10
26103;DHT22;32703;49.182;9.042;2022-08-01T11:01:21;31.90;50.80
26103;DHT22;32703;49.182;9.042;2022-08-01T11:04:14;31.70;50.50
26103;DHT22;32703;49.182;9.042;2022-08-01T11:06:41;31.40;50.70
26103;DHT22;32703;49.182;9.042;2022-08-01T11:14:22;30.30;52.70
26103;DHT22;32703;49.182;9.042;2022-08-01T11:16:48;30.30;53.20
26103;DHT22;32703;49.182;9.042;2022-08-01T11:19:14;30.80;52.60
26103;DHT22;32703;49.182;9.042;2022-08-01T11:27:21;30.90;52.00
26103;DHT22;32703;49.182;9.042;2022-08-01T11:32:55;30.90;52.40
26103;DHT22;32703;49.182;9.042;2022-08-01T11:35:22;30.90;52.10
26103;DHT22;32703;49.182;9.042;2022-08-01T11:37:50;30.90;52.60
26103;DHT22;32703;49.182;9.042;2022-08-01T11:40:25;30.70;52.80
26103;DHT22;32703;49.182;9.042;2022-08-01T11:43:26;30.50;53.00
26103;DHT22;32703;49.182;9.042;2022-08-01T11:45:56;30.40;53.70
26103;DHT22;32703;49.182;9.042;2022-08-01T11:48:23;30.20;53.50
26103;DHT22;32703;49.182;9.042;2022-08-01T11:50:53;30.10;54.20
26103;DHT22;32703;49.182;9.042;2022-08-01T11:53:19;30.00;54.30
26103;DHT22;32703;49.182;9.042;2022-08-01T11:55:46;30.00;54.20
26103;DHT22;32703;49.182;9.042;2022-08-01T11:58:16;30.10;54.30
26103;DHT22;32703;49.182;9.042;2022-08-01T12:00:46;30.20;54.20
26103;DHT22;32703;49.182;9.042;2022-08-01T12:03:15;30.10;53.90
26103;DHT22;32703;49.182;9.042;2022-08-01T12:05:44;30.20;53.80
26103;DHT22;32703;49.182;9.042;2022-08-01T12:08:09;30.40;53.50
26103;DHT22;32703;49.182;9.042;2022-08-01T12:10:38;30.60;53.40
26103;DHT22;32703;49.182;9.042;2022-08-01T12:13:06;30.80;53.40
26103;DHT22;32703;49.182;9.042;2022-08-01T12:15:36;31.00;52.90
26103;DHT22;32703;49.182;9.042;2022-08-01T12:18:05;31.10;52.10
26103;DHT22;32703;49.182;9.042;2022-08-01T12:20:37;31.20;52.20
26103;DHT22;32703;49.182;9.042;2022-08-01T12:23:09;31.40;52.10
26103;DHT22;32703;49.182;9.042;2022-08-01T12:25:36;31.60;52.00
26103;DHT22;32703;49.182;9.042;2022-08-01T12:28:04;32.00;51.00
26103;DHT22;32703;49.182;9.042;2022-08-01T12:30:30;32.00;50.00
26103;DHT22;32703;49.182;9.042;2022-08-01T12:32:57;31.60;50.80
26103;DHT22;32703;49.182;9.042;2022-08-01T12:35:25;31.10;51.30
26103;DHT22;32703;49.182;9.042;2022-08-01T12:37:55;30.80;52.50
26103;DHT22;32703;49.182;9.042;2022-08-01T12:40:23;30.70;52.50
26103;DHT22;32703;49.182;9.042;2022-08-01T12:42:54;30.70;53.00
26103;DHT22;32703;49.182;9.042;2022-08-01T12:45:25;30.70;52.40
26103;DHT22;32703;49.182;9.042;2022-08-01T12:47:53;30.60;52.60
26103;DHT22;32703;49.182;9.042;2022-08-01T12:50:21;30.40;53.10
26103;DHT22;32703;49.182;9.042;2022-08-01T12:52:48;30.30;53.40
26103;DHT22;32703;49.182;9.042;2022-08-01T12:55:21;30.10;53.50
26103;DHT22;32703;49.182;9.042;2022-08-01T12:57:49;30.00;54.00
26103;DHT22;32703;49.182;9.042;2022-08-01T13:00:23;30.10;54.40
26103;DHT22;32703;49.182;9.042;2022-08-01T13:03:01;30.50;53.00
26103;DHT22;32703;49.182;9.042;2022-08-01T13:05:27;30.80;52.70
26103;DHT22;32703;49.182;9.042;2022-08-01T13:07:55;31.00;51.50
26103;DHT22;32703;49.182;9.042;2022-08-01T13:10:29;31.10;51.20
26103;DHT22;32703;49.182;9.042;2022-08-01T13:12:57;31.10;51.50
26103;DHT22;32703;49.182;9.042;2022-08-01T13:15:31;31.20;51.70
26103;DHT22;32703;49.182;9.042;2022-08-01T13:17:59;31.40;51.50
26103;DHT22;32703;49.182;9.042;2022-08-01T13:20:31;31.70;51.20
26103;DHT22;32703;49.182;9.042;2022-08-01T13:23:18;31.80;50.40
26103;DHT22;32703;49.182;9.042;2022-08-01T13:25:52;32.10;50.20
26103;DHT22;32703;49.182;9.042;2022-08-01T13:28:26;32.40;50.20
26103;DHT22;32703;49.182;9.042;2022-08-01T13:31:08;32.50;48.80
26103;DHT22;32703;49.182;9.042;2022-08-01T13:33:48;32.80;48.70
26103;DHT22;32703;49.182;9.042;2022-08-01T13:36:14;32.80;47.30
26103;DHT22;32703;49.182;9.042;2022-08-01T13:38:41;32.80;47.70
26103;DHT22;32703;49.182;9.042;2022-08-01T13:41:26;32.60;48.20
26103;DHT22;32703;49.182;9.042;2022-08-01T13:43:52;32.30;48.80
26103;DHT22;32703;49.182;9.042;2022-08-01T13:46:18;32.00;49.10
26103;DHT22;32703;49.182;9.042;2022-08-01T13:48:44;31.70;49.70
26103;DHT22;32703;49.182;9.042;2022-08-01T13:51:09;31.50;50.50
26103;DHT22;32703;49.182;9.042;2022-08-01T13:53:35;31.30;50.50
26103;DHT22;32703;49.182;9.042;2022-08-01T13:56:03;31.30;50.20
26103;DHT22;32703;49.182;9.042;2022-08-01T13:58:29;31.30;50.70
26103;DHT22;32703;49.182;9.042;2022-08-01T14:00:58;31.40;50.70
26103;DHT22;32703;49.182;9.042;2022-08-01T14:03:23;31.50;50.50
26103;DHT22;32703;49.182;9.042;2022-08-01T14:05:49;31.40;49.30
26103;DHT22;32703;49.182;9.042;2022-08-01T14:08:15;31.30;49.50
26103;DHT22;32703;49.182;9.042;2022-08-01T14:10:41;31.10;50.60
26103;DHT22;32703;49.182;9.042;2022-08-01T14:13:07;31.10;50.60
26103;DHT22;32703;49.182;9.042;2022-08-01T14:15:33;31.10;50.10
26103;DHT22;32703;49.182;9.042;2022-08-01T14:17:58;31.00;49.90
26103;DHT22;32703;49.182;9.042;2022-08-01T14:20:25;30.80;50.80
26103;DHT22;32703;49.182;9.042;2022-08-01T14:22:50;30.80;51.40
26103;DHT22;32703;49.182;9.042;2022-08-01T14:25:16;30.80;51.40
26103;DHT22;32703;49.182;9.042;2022-08-01T14:27:44;30.70;51.40
26103;DHT22;32703;49.182;9.042;2022-08-01T14:30:10;30.80;51.70
26103;DHT22;32703;49.182;9.042;2022-08-01T14:32:36;30.70;51.10
26103;DHT22;32703;49.182;9.042;2022-08-01T14:35:04;30.70;50.80
26103;DHT22;32703;49.182;9.042;2022-08-01T14:37:30;30.60;51.10
26103;DHT22;32703;49.182;9.042;2022-08-01T14:39:56;30.50;51.40
26103;DHT22;32703;49.182;9.042;2022-08-01T14:42:22;30.40;51.80
26103;DHT22;32703;49.182;9.042;2022-08-01T14:44:48;30.40;52.00
26103;DHT22;32703;49.182;9.042;2022-08-01T14:47:13;30.40;51.50
26103;DHT22;32703;49.182;9.042;2022-08-01T14:49:39;30.50;50.80
26103;DHT22;32703;49.182;9.042;2022-08-01T14:52:05;30.60;50.90
26103;DHT22;32703;49.182;9.042;2022-08-01T14:54:30;30.60;51.20
26103;DHT22;32703;49.182;9.042;2022-08-01T14:56:56;30.80;51.10
26103;DHT22;32703;49.182;9.042;2022-08-01T14:59:22;30.70;51.00
26103;DHT22;32703;49.182;9.042;2022-08-01T15:01:47;30.60;51.40
26103;DHT22;32703;49.182;9.042;2022-08-01T15:04:13;30.50;51.50
26103;DHT22;32703;49.182;9.042;2022-08-01T15:06:38;30.40;51.40
26103;DHT22;32703;49.182;9.042;2022-08-01T15:09:04;30.20;51.50
26103;DHT22;32703;49.182;9.042;2022-08-01T15:11:29;30.10;51.40
26103;DHT22;32703;49.182;9.042;2022-08-01T15:13:55;29.90;51.90
26103;DHT22;32703;49.182;9.042;2022-08-01T15:16:39;29.70;51.80
26103;DHT22;32703;49.182;9.042;2022-08-01T15:19:05;29.50;52.40
26103;DHT22;32703;49.182;9.042;2022-08-01T15:21:30;29.40;52.70
26103;DHT22;32703;49.182;9.042;2022-08-01T15:23:56;29.30;52.60
26103;DHT22;32703;49.182;9.042;2022-08-01T15:26:22;29.30;51.50
26103;DHT22;32703;49.182;9.042;2022-08-01T15:28:47;29.30;51.40
26103;DHT22;32703;49.182;9.042;2022-08-01T15:31:16;29.30;51.90
26103;DHT22;32703;49.182;9.042;2022-08-01T15:33:41;29.30;52.10
26103;DHT22;32703;49.182;9.042;2022-08-01T15:36:07;29.40;52.00
26103;DHT22;32703;49.182;9.042;2022-08-01T15:38:33;29.60;52.60
26103;DHT22;32703;49.182;9.042;2022-08-01T15:40:58;29.60;52.50
26103;DHT22;32703;49.182;9.042;2022-08-01T15:43:24;29.70;52.60
26103;DHT22;32703;49.182;9.042;2022-08-01T15:45:50;29.70;52.80
26103;DHT22;32703;49.182;9.042;2022-08-01T15:48:16;29.80;52.10
26103;DHT22;32703;49.182;9.042;2022-08-01T15:50:42;29.80;52.30
26103;DHT22;32703;49.182;9.042;2022-08-01T15:53:07;29.70;52.30
26103;DHT22;32703;49.182;9.042;2022-08-01T15:55:37;29.70;52.80